Time;durP1;ratioP1;P1;durP2;ratioP2;P2;SDS_P1;SDS_P2;PMS_P1;PMS_P2;Temp;Humidity;BMP_temperature;BMP_pressure;BME280_temperature;BME280_humidity;BME280_pressure;Samples;Min_cycle;Max_cycle;Signal;HPM_P1;HPM_P2
2021/08/31 00:02:10;;;;;;;18.80;17.20;;;14.80;99.90;;;;;;4964431;28;20629;-90
2021/08/31 00:04:37;;;;;;;18.67;17.00;;;14.90;99.90;;;;;;4960759;28;20625;-90
2021/08/31 00:07:04;;;;;;;19.30;17.60;;;14.80;99.90;;;;;;4955558;28;20657;-90
2021/08/31 00:09:32;;;;;;;18.43;16.90;;;14.80;99.90;;;;;;4957478;28;20630;-90
2021/08/31 00:11:59;;;;;;;19.03;17.43;;;14.90;99.90;;;;;;4960810;28;20640;-90
2021/08/31 00:14:26;;;;;;;19.13;16.70;;;14.90;99.90;;;;;;4955019;28;20741;-91
2021/08/31 00:16:53;;;;;;;16.53;15.20;;;14.80;99.90;;;;;;4937903;29;20666;-90
2021/08/31 00:19:20;;;;;;;16.37;14.87;;;14.80;99.90;;;;;;4955895;28;20658;-90
2021/08/31 00:21:47;;;;;;;17.60;16.10;;;14.80;99.90;;;;;;4954896;28;20619;-89
2021/08/31 00:24:14;;;;;;;16.00;14.60;;;14.80;99.90;;;;;;4959848;28;20721;-89
2021/08/31 00:26:42;;;;;;;16.63;15.03;;;14.90;99.90;;;;;;4954910;28;20779;-89
2021/08/31 00:29:09;;;;;;;15.10;13.80;;;14.80;99.90;;;;;;4958637;28;21196;-90
2021/08/31 00:31:36;;;;;;;14.83;13.53;;;14.80;99.90;;;;;;4956507;28;20638;-90
2021/08/31 00:34:03;;;;;;;12.83;11.63;;;14.80;99.90;;;;;;4951643;28;21174;-89
2021/08/31 00:36:30;;;;;;;13.43;12.37;;;14.80;99.90;;;;;;4960550;28;20685;-89
2021/08/31 00:38:57;;;;;;;13.00;11.80;;;14.80;99.90;;;;;;4959148;28;20601;-90
2021/08/31 00:41:24;;;;;;;13.10;12.10;;;14.70;99.90;;;;;;4958158;28;20639;-92
2021/08/31 00:43:53;;;;;;;12.77;11.70;;;14.70;99.90;;;;;;4956204;28;21025;-91
2021/08/31 00:46:22;;;;;;;10.93;10.03;;;14.70;99.90;;;;;;4960617;28;21003;-90
2021/08/31 00:48:50;;;;;;;16.00;11.00;;;14.70;99.90;;;;;;4960258;28;20636;-90
2021/08/31 00:51:19;;;;;;;12.03;11.03;;;14.70;99.90;;;;;;4953443;28;21019;-89
2021/08/31 00:53:46;;;;;;;11.70;10.80;;;14.70;99.90;;;;;;4952901;28;20617;-90
2021/08/31 00:56:13;;;;;;;11.67;10.60;;;14.70;99.90;;;;;;4954437;28;20673;-90
2021/08/31 00:58:40;;;;;;;11.47;10.53;;;14.70;99.90;;;;;;4950459;28;20642;-90
2021/08/31 01:01:08;;;;;;;11.23;10.27;;;14.70;99.90;;;;;;4955207;28;20673;-90
2021/08/31 01:03:35;;;;;;;13.40;12.17;;;14.80;99.90;;;;;;4957726;28;20635;-90
2021/08/31 01:06:03;;;;;;;13.23;12.10;;;14.80;99.90;;;;;;4965742;28;20756;-93
2021/08/31 01:08:30;;;;;;;13.03;12.03;;;14.70;99.90;;;;;;4960744;28;21187;-89
2021/08/31 01:10:59;;;;;;;11.60;10.73;;;14.80;99.90;;;;;;4965682;28;20691;-90
2021/08/31 01:13:27;;;;;;;13.40;12.30;;;14.70;99.90;;;;;;4962909;28;20649;-90
2021/08/31 01:15:54;;;;;;;13.43;12.30;;;14.70;99.90;;;;;;4958585;28;20644;-90
2021/08/31 01:18:24;;;;;;;14.40;13.20;;;14.70;99.90;;;;;;4962137;28;21070;-90
2021/08/31 01:20:54;;;;;;;14.50;13.20;;;14.70;99.90;;;;;;4959731;28;20668;-90
2021/08/31 01:23:22;;;;;;;16.57;15.17;;;14.70;99.90;;;;;;4961828;28;20624;-90
2021/08/31 01:25:50;;;;;;;16.07;14.57;;;14.70;99.90;;;;;;4960712;28;21136;-90
2021/08/31 01:28:19;;;;;;;16.53;15.17;;;14.70;99.90;;;;;;4961674;28;20675;-90
2021/08/31 01:30:47;;;;;;;15.70;14.40;;;14.70;99.90;;;;;;4958321;28;20614;-90
2021/08/31 01:33:14;;;;;;;17.97;16.37;;;14.80;99.90;;;;;;4965216;28;20622;-91
2021/08/31 01:35:41;;;;;;;19.10;17.30;;;14.80;99.90;;;;;;4958096;28;20660;-91
2021/08/31 01:38:08;;;;;;;18.90;17.10;;;14.80;99.90;;;;;;4967040;28;20625;-91
2021/08/31 01:40:35;;;;;;;19.57;17.37;;;14.80;99.90;;;;;;4958848;28;20662;-92
2021/08/31 01:43:04;;;;;;;18.07;16.47;;;14.80;99.90;;;;;;4959881;28;21434;-91
2021/08/31 01:45:43;;;;;;;19.10;17.50;;;14.80;99.90;;;;;;4955402;28;20657;-91
2021/08/31 01:48:10;;;;;;;20.03;18.23;;;14.80;99.90;;;;;;4959756;28;20688;-92
2021/08/31 01:50:36;;;;;;;20.50;18.60;;;14.90;99.90;;;;;;4958054;28;20605;-92
2021/08/31 01:53:03;;;;;;;22.23;19.13;;;14.80;99.90;;;;;;4959367;28;20630;-91
2021/08/31 01:55:30;;;;;;;20.50;18.70;;;14.90;99.90;;;;;;4961090;28;21059;-90
2021/08/31 01:57:57;;;;;;;20.80;18.97;;;14.90;99.90;;;;;;4961371;28;20663;-91
2021/08/31 02:00:25;;;;;;;20.27;18.33;;;14.90;99.90;;;;;;4961191;28;20657;-90
2021/08/31 02:02:52;;;;;;;23.37;21.07;;;14.80;99.90;;;;;;4964028;28;20634;-92
2021/08/31 02:05:19;;;;;;;22.50;20.40;;;14.90;99.90;;;;;;4961975;28;20599;-91
2021/08/31 02:07:46;;;;;;;21.13;19.17;;;14.90;99.90;;;;;;4962964;28;20669;-92
2021/08/31 02:10:13;;;;;;;20.70;18.90;;;14.90;99.90;;;;;;4962173;28;20733;-91
2021/08/31 02:12:40;;;;;;;20.47;18.67;;;14.90;99.90;;;;;;4963471;28;20652;-92
2021/08/31 02:15:07;;;;;;;21.57;19.60;;;14.80;99.90;;;;;;4961983;28;21168;-92
2021/08/31 02:17:35;;;;;;;21.83;19.70;;;14.80;99.90;;;;;;4961817;28;21219;-91
2021/08/31 02:20:02;;;;;;;21.13;19.23;;;14.70;99.90;;;;;;4960187;28;21050;-90
2021/08/31 02:22:29;;;;;;;21.20;19.20;;;14.70;99.90;;;;;;4961561;28;20630;-90
2021/08/31 02:24:56;;;;;;;20.37;18.67;;;14.70;99.90;;;;;;4956899;28;20649;-90
2021/08/31 02:27:23;;;;;;;20.07;18.27;;;14.70;99.90;;;;;;4958654;28;20745;-90
2021/08/31 02:29:50;;;;;;;19.60;18.00;;;14.70;99.90;;;;;;4956698;28;20644;-90
2021/08/31 02:32:17;;;;;;;19.17;17.27;;;14.60;99.90;;;;;;4959087;28;20628;-90
2021/08/31 02:34:45;;;;;;;19.07;17.30;;;14.60;99.90;;;;;;4966794;28;20621;-91
2021/08/31 02:37:12;;;;;;;18.60;16.87;;;14.60;99.90;;;;;;4960332;28;20658;-91
2021/08/31 02:39:39;;;;;;;17.07;15.27;;;14.60;99.90;;;;;;4966034;28;20703;-90
2021/08/31 02:42:06;;;;;;;16.80;15.33;;;14.60;99.90;;;;;;4961505;28;20643;-91
2021/08/31 02:44:32;;;;;;;16.73;15.23;;;14.60;99.90;;;;;;4957175;28;20621;-91
2021/08/31 02:46:59;;;;;;;17.90;16.37;;;14.60;99.90;;;;;;4958579;28;20682;-91
2021/08/31 02:49:26;;;;;;;17.77;16.37;;;14.60;99.90;;;;;;4961683;28;20642;-91
2021/08/31 02:51:54;;;;;;;18.37;16.63;;;14.60;99.90;;;;;;4963843;28;21095;-92
2021/08/31 02:54:21;;;;;;;17.03;15.60;;;14.50;99.90;;;;;;4964109;28;20636;-92
2021/08/31 02:56:48;;;;;;;16.13;14.80;;;14.50;99.90;;;;;;4958543;28;21247;-92
2021/08/31 02:59:15;;;;;;;16.37;14.67;;;14.50;99.90;;;;;;4960792;28;20989;-91
2021/08/31 03:04:23;;;;;;;18.60;16.70;;;14.50;99.90;;;;;;4963304;28;20617;-90
2021/08/31 03:06:50;;;;;;;22.17;19.90;;;14.50;99.90;;;;;;4945746;28;20646;-90
2021/08/31 03:09:18;;;;;;;22.07;20.17;;;14.40;99.90;;;;;;4958461;28;20623;-90
2021/08/31 03:11:45;;;;;;;21.67;19.67;;;14.50;99.90;;;;;;4959911;28;20644;-90
2021/08/31 03:14:12;;;;;;;21.40;19.20;;;14.40;99.90;;;;;;4956145;28;20615;-90
2021/08/31 03:16:39;;;;;;;21.57;19.67;;;14.40;99.90;;;;;;4961915;28;20873;-91
2021/08/31 03:19:06;;;;;;;23.00;20.97;;;14.50;99.90;;;;;;4961195;28;20610;-91
2021/08/31 03:21:32;;;;;;;21.97;19.87;;;14.50;99.90;;;;;;4963983;28;20673;-91
2021/08/31 03:23:59;;;;;;;23.73;21.70;;;14.50;99.90;;;;;;4966240;28;21108;-90
2021/08/31 03:26:28;;;;;;;23.67;21.67;;;14.50;99.90;;;;;;4960161;28;21537;-91
2021/08/31 03:28:54;;;;;;;23.90;21.63;;;14.50;99.90;;;;;;4958385;28;20591;-89
2021/08/31 03:31:21;;;;;;;23.20;21.00;;;14.60;99.90;;;;;;4965747;28;20629;-90
2021/08/31 03:33:48;;;;;;;25.37;23.00;;;14.60;99.90;;;;;;4962496;28;20704;-91
2021/08/31 03:36:15;;;;;;;25.17;22.77;;;14.60;99.90;;;;;;4971368;28;20660;-91
2021/08/31 03:38:41;;;;;;;26.63;24.13;;;14.60;99.90;;;;;;4964586;28;21024;-91
2021/08/31 03:41:09;;;;;;;23.40;21.30;;;14.50;99.90;;;;;;4956655;28;21225;-91
2021/08/31 03:43:37;;;;;;;24.03;21.83;;;14.50;99.90;;;;;;4956737;28;20622;-91
2021/08/31 03:46:04;;;;;;;23.30;21.20;;;14.40;99.90;;;;;;4961249;28;20693;-91
2021/08/31 03:48:31;;;;;;;24.67;22.40;;;14.40;99.90;;;;;;4957920;28;20652;-89
2021/08/31 03:50:58;;;;;;;22.90;20.57;;;14.40;99.90;;;;;;4957733;28;20630;-90
2021/08/31 03:53:24;;;;;;;22.70;20.40;;;14.40;99.90;;;;;;4959034;28;20660;-90
2021/08/31 03:55:51;;;;;;;23.70;21.40;;;14.30;99.90;;;;;;4954974;28;20645;-90
2021/08/31 03:58:18;;;;;;;23.37;21.20;;;14.30;99.90;;;;;;4960364;28;20601;-92
2021/08/31 04:00:46;;;;;;;24.60;22.30;;;14.30;99.90;;;;;;4959258;28;20670;-91
2021/08/31 04:03:13;;;;;;;24.30;22.00;;;14.30;99.90;;;;;;4957151;28;20645;-90
2021/08/31 04:05:40;;;;;;;24.30;22.00;;;14.30;99.90;;;;;;4956037;28;21014;-91
2021/08/31 04:08:07;;;;;;;23.97;21.87;;;14.30;99.90;;;;;;4961180;28;20630;-90
2021/08/31 04:10:34;;;;;;;25.47;22.77;;;14.30;99.90;;;;;;4952628;28;20643;-93
2021/08/31 04:13:01;;;;;;;26.50;24.13;;;14.30;99.90;;;;;;4955247;28;20668;-90
2021/08/31 04:15:27;;;;;;;26.67;24.03;;;14.40;99.90;;;;;;4954430;28;20625;-90
2021/08/31 04:17:56;;;;;;;26.30;24.00;;;14.40;99.90;;;;;;4959944;28;20650;-90
2021/08/31 04:20:23;;;;;;;25.83;23.03;;;14.40;99.90;;;;;;4955089;28;20754;-91
2021/08/31 04:22:49;;;;;;;25.57;22.93;;;14.40;99.90;;;;;;4959182;28;21233;-90
2021/08/31 04:25:16;;;;;;;25.20;22.80;;;14.40;99.90;;;;;;4926715;28;20626;-91
2021/08/31 04:27:43;;;;;;;25.60;23.20;;;14.50;99.90;;;;;;4959839;28;21074;-91
2021/08/31 04:30:11;;;;;;;25.47;23.17;;;14.50;99.90;;;;;;4954684;28;21160;-90
2021/08/31 04:32:39;;;;;;;27.37;24.57;;;14.50;99.90;;;;;;4957645;28;20673;-90
2021/08/31 04:35:08;;;;;;;25.53;23.13;;;14.50;99.90;;;;;;4962485;28;20653;-89
2021/08/31 04:37:36;;;;;;;26.17;23.57;;;14.50;99.90;;;;;;4962014;28;20657;-90
2021/08/31 04:40:03;;;;;;;25.37;23.17;;;14.50;99.90;;;;;;4961010;28;20694;-90
2021/08/31 04:42:30;;;;;;;24.17;22.07;;;14.50;99.90;;;;;;4960553;28;20680;-90
2021/08/31 04:44:57;;;;;;;24.53;22.47;;;14.50;99.90;;;;;;4965363;28;21112;-89
2021/08/31 04:47:24;;;;;;;26.47;23.87;;;14.50;99.90;;;;;;4962359;28;21181;-90
2021/08/31 04:49:51;;;;;;;25.67;23.17;;;14.50;99.90;;;;;;4965807;28;20629;-90
2021/08/31 04:52:19;;;;;;;25.80;23.40;;;14.60;99.90;;;;;;4943997;28;20765;-90
2021/08/31 04:54:46;;;;;;;25.80;23.50;;;14.60;99.90;;;;;;4958657;28;20626;-90
2021/08/31 04:57:13;;;;;;;21.90;19.80;;;14.60;99.90;;;;;;4960885;28;20639;-90
2021/08/31 04:59:40;;;;;;;22.03;20.13;;;14.60;99.90;;;;;;4962931;28;20637;-91
2021/08/31 05:02:07;;;;;;;21.07;19.30;;;14.60;99.90;;;;;;4967994;28;20697;-90
2021/08/31 05:04:35;;;;;;;18.20;16.57;;;14.60;99.90;;;;;;4960596;28;20706;-90
2021/08/31 05:07:04;;;;;;;18.53;17.03;;;14.60;99.90;;;;;;4962554;28;20741;-90
2021/08/31 05:09:32;;;;;;;16.30;14.80;;;14.70;99.90;;;;;;4961062;28;21199;-90
2021/08/31 05:12:00;;;;;;;16.47;15.17;;;14.60;99.90;;;;;;4963474;28;20653;-90
2021/08/31 05:14:27;;;;;;;15.60;14.30;;;14.70;99.90;;;;;;4959916;28;20634;-91
2021/08/31 05:16:54;;;;;;;15.53;14.23;;;14.70;99.90;;;;;;4960569;28;20621;-90
2021/08/31 05:19:20;;;;;;;14.23;12.97;;;14.70;99.90;;;;;;4964897;28;20629;-90
2021/08/31 05:21:49;;;;;;;14.93;13.63;;;14.70;99.90;;;;;;4968649;28;20693;-90
2021/08/31 05:24:16;;;;;;;14.20;12.97;;;14.70;99.90;;;;;;4964575;28;21156;-90
2021/08/31 05:26:45;;;;;;;15.17;13.80;;;14.70;99.90;;;;;;4959646;28;21207;-90
2021/08/31 05:29:11;;;;;;;13.73;12.73;;;14.70;99.90;;;;;;4959199;28;20638;-87
2021/08/31 05:31:38;;;;;;;14.40;13.00;;;14.70;99.90;;;;;;4962610;28;21025;-90
2021/08/31 05:34:05;;;;;;;12.77;11.67;;;14.80;99.90;;;;;;4957274;28;21238;-88
2021/08/31 05:36:32;;;;;;;14.30;12.93;;;14.80;99.90;;;;;;4955980;28;21160;-88
2021/08/31 05:38:58;;;;;;;13.40;12.20;;;14.80;99.90;;;;;;4958112;28;20693;-88
2021/08/31 05:41:25;;;;;;;14.33;12.93;;;14.70;99.90;;;;;;4959245;28;20681;-90
2021/08/31 05:43:54;;;;;;;13.67;12.57;;;14.80;99.90;;;;;;4967455;28;21204;-89
2021/08/31 05:46:21;;;;;;;13.90;12.80;;;14.70;99.90;;;;;;4963709;28;20633;-90
2021/08/31 05:48:48;;;;;;;13.87;12.57;;;14.80;99.90;;;;;;4957582;28;20646;-90
2021/08/31 05:51:14;;;;;;;13.43;12.30;;;14.80;99.90;;;;;;4964482;28;20654;-89
2021/08/31 05:53:41;;;;;;;13.43;12.33;;;14.80;99.90;;;;;;4958428;28;21090;-89
2021/08/31 05:56:08;;;;;;;14.27;13.00;;;14.70;99.90;;;;;;4962531;28;21241;-90
2021/08/31 05:58:35;;;;;;;12.00;11.00;;;14.80;99.90;;;;;;4959142;28;20625;-89
2021/08/31 06:01:03;;;;;;;14.40;13.00;;;14.90;99.90;;;;;;4961624;28;20689;-89
2021/08/31 06:03:30;;;;;;;13.33;12.23;;;14.90;99.90;;;;;;4960908;28;20626;-89
2021/08/31 06:05:57;;;;;;;12.00;11.10;;;15.00;99.90;;;;;;4961456;28;21179;-90
2021/08/31 06:08:24;;;;;;;13.13;12.13;;;15.00;99.90;;;;;;4961750;28;20643;-89
2021/08/31 06:10:50;;;;;;;12.63;11.50;;;15.00;99.90;;;;;;4959964;28;20987;-89
2021/08/31 06:13:19;;;;;;;11.87;10.83;;;15.00;99.90;;;;;;4960477;28;20657;-89
2021/08/31 06:15:46;;;;;;;11.70;10.50;;;15.00;99.90;;;;;;4960219;28;20705;-91
2021/08/31 06:18:15;;;;;;;13.97;12.70;;;15.00;99.90;;;;;;4955506;28;20634;-90
2021/08/31 06:20:43;;;;;;;12.03;11.03;;;15.00;99.90;;;;;;4958726;28;20622;-90
2021/08/31 06:23:11;;;;;;;12.00;10.90;;;15.20;99.90;;;;;;4942658;28;20697;-89
2021/08/31 06:25:38;;;;;;;12.70;11.67;;;15.20;99.90;;;;;;4959180;28;20618;-89
2021/08/31 06:28:05;;;;;;;12.37;11.27;;;15.20;99.90;;;;;;4964373;28;23229;-89
2021/08/31 06:30:34;;;;;;;12.20;11.00;;;15.30;99.90;;;;;;4961320;28;20677;-89
2021/08/31 06:33:01;;;;;;;11.20;10.20;;;15.40;99.90;;;;;;4964016;28;20676;-90
2021/08/31 06:35:29;;;;;;;13.60;12.50;;;15.40;99.90;;;;;;4960319;28;20688;-90
2021/08/31 06:37:56;;;;;;;13.93;12.70;;;15.50;99.90;;;;;;4945241;28;20626;-90
2021/08/31 06:40:23;;;;;;;13.13;12.03;;;15.60;99.90;;;;;;4954179;28;20732;-90
2021/08/31 06:42:49;;;;;;;10.33;8.77;;;15.60;99.90;;;;;;4958141;28;20694;-90
2021/08/31 06:45:16;;;;;;;10.10;8.87;;;15.70;99.90;;;;;;4959921;28;20627;-89
2021/08/31 06:47:43;;;;;;;9.70;8.60;;;15.70;99.90;;;;;;4961020;28;20648;-89
2021/08/31 06:50:15;;;;;;;10.03;9.00;;;15.70;99.90;;;;;;4961244;28;20641;-89
2021/08/31 06:52:44;;;;;;;10.40;9.40;;;15.80;99.90;;;;;;4961911;28;20657;-90
2021/08/31 06:55:11;;;;;;;16.23;9.30;;;16.00;99.90;;;;;;4966186;28;20973;-89
2021/08/31 06:57:38;;;;;;;11.30;9.50;;;16.00;99.90;;;;;;4958185;28;20630;-90
2021/08/31 07:00:08;;;;;;;10.03;9.00;;;16.10;99.90;;;;;;4961322;28;20869;-90
2021/08/31 07:02:34;;;;;;;10.17;9.20;;;16.30;99.90;;;;;;4961279;28;20674;-90
2021/08/31 07:05:01;;;;;;;10.03;9.10;;;16.20;99.90;;;;;;4965750;28;20903;-90
2021/08/31 07:07:30;;;;;;;11.33;9.00;;;16.30;99.90;;;;;;4958961;28;20637;-90
2021/08/31 07:09:59;;;;;;;9.77;8.87;;;16.30;99.90;;;;;;4959286;28;21060;-91
2021/08/31 07:12:26;;;;;;;11.17;10.13;;;16.40;99.90;;;;;;4958223;28;20661;-90
2021/08/31 07:14:53;;;;;;;10.03;8.93;;;16.30;99.90;;;;;;4964261;28;20636;-90
2021/08/31 07:17:21;;;;;;;9.47;8.57;;;16.40;99.90;;;;;;4958274;28;20633;-90
2021/08/31 07:19:50;;;;;;;9.43;8.53;;;16.50;99.90;;;;;;4956123;28;20642;-90
2021/08/31 07:22:18;;;;;;;12.10;11.10;;;16.50;99.90;;;;;;4957547;28;20894;-90
2021/08/31 07:24:45;;;;;;;11.77;10.87;;;16.30;99.90;;;;;;4955661;28;20630;-90
2021/08/31 07:27:15;;;;;;;13.80;11.70;;;16.40;99.90;;;;;;4963001;28;20664;-90
2021/08/31 07:29:41;;;;;;;8.90;8.00;;;16.30;99.90;;;;;;4959084;28;20633;-91
2021/08/31 07:32:11;;;;;;;11.77;10.87;;;16.50;99.90;;;;;;4958059;28;20657;-90
2021/08/31 07:34:39;;;;;;;9.23;8.43;;;16.60;99.90;;;;;;4960493;28;20973;-90
2021/08/31 07:37:06;;;;;;;14.50;8.33;;;16.50;99.90;;;;;;4956781;28;20645;-90
2021/08/31 07:39:36;;;;;;;9.63;7.97;;;16.50;99.90;;;;;;4945562;28;20986;-90
2021/08/31 07:42:04;;;;;;;10.77;9.30;;;16.50;99.90;;;;;;4956581;28;20688;-89
2021/08/31 07:44:32;;;;;;;11.20;10.20;;;16.50;99.90;;;;;;4954375;28;21176;-90
2021/08/31 07:47:01;;;;;;;9.53;7.80;;;16.50;99.90;;;;;;4943517;28;20626;-90
2021/08/31 07:49:28;;;;;;;9.33;8.40;;;16.50;99.90;;;;;;4950491;28;20628;-90
2021/08/31 07:51:55;;;;;;;7.10;6.50;;;16.70;99.90;;;;;;4960064;28;20665;-91
2021/08/31 07:54:21;;;;;;;11.57;8.27;;;16.70;99.90;;;;;;4960452;28;20630;-91
2021/08/31 07:56:48;;;;;;;7.47;6.77;;;16.80;99.90;;;;;;4961451;28;20660;-90
2021/08/31 07:59:15;;;;;;;11.40;6.43;;;16.90;99.90;;;;;;4962888;28;20626;-90
2021/08/31 08:01:44;;;;;;;8.03;7.23;;;16.80;99.90;;;;;;4956567;28;20682;-91
2021/08/31 08:04:12;;;;;;;8.63;7.87;;;16.80;99.90;;;;;;4959821;28;20695;-90
2021/08/31 08:06:41;;;;;;;10.17;7.70;;;16.80;99.90;;;;;;4960731;28;20661;-90
2021/08/31 08:09:08;;;;;;;11.10;10.20;;;16.90;99.90;;;;;;4959068;28;20693;-91
2021/08/31 08:11:35;;;;;;;9.80;8.90;;;17.00;99.90;;;;;;4965220;28;20649;-91
2021/08/31 08:14:01;;;;;;;10.60;9.60;;;17.00;99.90;;;;;;4961093;28;20625;-90
2021/08/31 08:16:28;;;;;;;9.20;8.13;;;16.90;99.90;;;;;;4943958;28;20650;-90
2021/08/31 08:18:57;;;;;;;8.70;7.73;;;16.90;99.90;;;;;;4964166;28;20640;-90
2021/08/31 08:21:24;;;;;;;11.27;10.27;;;17.00;99.90;;;;;;4962955;28;20677;-91
2021/08/31 08:23:50;;;;;;;12.40;8.60;;;16.90;99.90;;;;;;4960998;28;21006;-90
2021/08/31 08:26:17;;;;;;;10.90;10.10;;;16.80;99.90;;;;;;4963416;28;20629;-90
2021/08/31 08:28:44;;;;;;;9.40;7.53;;;16.90;99.90;;;;;;4959359;28;20981;-91
2021/08/31 08:31:11;;;;;;;10.23;9.33;;;17.10;99.90;;;;;;4933266;28;20647;-91
2021/08/31 08:33:38;;;;;;;9.97;9.10;;;17.10;99.90;;;;;;4962894;28;20625;-91
2021/08/31 08:36:08;;;;;;;10.60;9.60;;;17.10;99.90;;;;;;4958558;28;20615;-91
2021/08/31 08:38:36;;;;;;;9.70;8.63;;;17.00;99.90;;;;;;4970438;28;20629;-91
2021/08/31 08:41:05;;;;;;;10.77;9.93;;;17.20;99.90;;;;;;4963102;28;21156;-91
2021/08/31 08:43:32;;;;;;;9.10;7.60;;;17.20;99.90;;;;;;4963712;28;20794;-91
2021/08/31 08:46:02;;;;;;;9.67;8.87;;;17.10;99.90;;;;;;4961522;28;20653;-90
2021/08/31 08:48:30;;;;;;;9.53;8.63;;;17.10;99.90;;;;;;4959145;28;20990;-90
2021/08/31 08:50:58;;;;;;;9.63;8.83;;;16.90;99.90;;;;;;4962905;28;20689;-90
2021/08/31 08:53:28;;;;;;;10.60;7.50;;;17.10;99.90;;;;;;4963937;28;20692;-90
2021/08/31 08:55:56;;;;;;;8.47;7.73;;;17.10;99.90;;;;;;4963244;28;20974;-89
2021/08/31 08:58:23;;;;;;;10.50;9.43;;;17.20;99.90;;;;;;4965360;28;21175;-89
2021/08/31 09:00:57;;;;;;;9.67;8.77;;;17.30;99.90;;;;;;4967591;28;20653;-90
2021/08/31 09:03:25;;;;;;;9.90;9.10;;;17.50;99.90;;;;;;4964892;28;20747;-91
2021/08/31 09:06:08;;;;;;;9.60;8.80;;;17.40;99.90;;;;;;4959969;28;20619;-90
2021/08/31 09:08:39;;;;;;;9.10;8.40;;;17.50;99.90;;;;;;4960327;28;20634;-90
2021/08/31 09:11:20;;;;;;;8.10;7.40;;;17.40;99.90;;;;;;4961709;28;20727;-90
2021/08/31 09:13:48;;;;;;;8.80;8.10;;;17.30;99.90;;;;;;4960556;28;20621;-90
2021/08/31 09:16:38;;;;;;;7.97;7.27;;;17.60;99.90;;;;;;4962453;28;20618;-91
2021/08/31 09:19:05;;;;;;;7.90;7.10;;;17.70;99.90;;;;;;4945886;28;20645;-90
2021/08/31 09:21:32;;;;;;;7.10;6.47;;;17.70;99.90;;;;;;4972585;28;20658;-90
2021/08/31 09:24:01;;;;;;;11.70;8.60;;;17.80;99.90;;;;;;4974630;28;20651;-91
2021/08/31 09:26:38;;;;;;;8.70;7.90;;;18.10;99.90;;;;;;4970142;28;20625;-90
2021/08/31 09:29:13;;;;;;;6.90;6.20;;;18.40;99.90;;;;;;4965392;28;20613;-90
2021/08/31 09:31:55;;;;;;;6.30;5.77;;;18.50;99.90;;;;;;4963870;28;20656;-90
2021/08/31 09:34:41;;;;;;;8.73;6.27;;;18.70;99.90;;;;;;4960125;28;21220;-90
2021/08/31 09:37:37;;;;;;;8.53;7.70;;;18.50;99.90;;;;;;4960646;28;20642;-90
2021/08/31 09:40:16;;;;;;;6.80;6.13;;;18.30;99.90;;;;;;4960819;28;20724;-90
2021/08/31 09:42:57;;;;;;;11.90;6.50;;;18.40;99.90;;;;;;4960866;28;21253;-90
2021/08/31 09:45:27;;;;;;;6.90;6.20;;;18.30;99.90;;;;;;4960483;28;21225;-90
2021/08/31 09:47:55;;;;;;;8.50;7.70;;;18.20;99.90;;;;;;4958885;28;20638;-90
2021/08/31 09:50:30;;;;;;;6.47;5.83;;;18.20;99.90;;;;;;4961245;28;20650;-90
2021/08/31 09:53:12;;;;;;;7.03;6.43;;;18.30;99.90;;;;;;4964092;28;20648;-91
2021/08/31 09:55:42;;;;;;;8.50;7.80;;;18.20;99.90;;;;;;4957130;28;21187;-90
2021/08/31 09:58:11;;;;;;;7.37;6.77;;;18.30;99.90;;;;;;4961235;28;20629;-90
2021/08/31 10:00:38;;;;;;;7.10;6.40;;;18.20;99.90;;;;;;4948680;28;20650;-90
2021/08/31 10:03:05;;;;;;;7.50;6.80;;;18.00;99.90;;;;;;4960438;28;21023;-90
2021/08/31 10:05:34;;;;;;;8.30;7.60;;;18.20;99.90;;;;;;4962204;28;20672;-90
2021/08/31 10:08:02;;;;;;;9.67;5.93;;;18.20;99.90;;;;;;4965460;28;20630;-90
2021/08/31 10:10:29;;;;;;;6.93;5.20;;;18.00;99.90;;;;;;4961348;28;21028;-90
2021/08/31 10:12:59;;;;;;;6.63;6.07;;;18.20;99.90;;;;;;4963818;28;20659;-90
2021/08/31 10:15:27;;;;;;;7.80;6.37;;;18.20;99.90;;;;;;4942425;28;20629;-90
2021/08/31 10:17:54;;;;;;;5.60;5.10;;;18.30;99.90;;;;;;4964760;28;20629;-90
2021/08/31 10:20:25;;;;;;;7.00;6.40;;;18.20;99.90;;;;;;4959087;28;20661;-90
2021/08/31 10:22:52;;;;;;;5.87;5.37;;;18.40;99.90;;;;;;4962186;28;20669;-90
2021/08/31 10:25:22;;;;;;;6.23;5.73;;;18.50;99.90;;;;;;4962624;28;20710;-90
2021/08/31 10:27:50;;;;;;;6.17;5.67;;;18.60;99.90;;;;;;4958224;28;20990;-91
2021/08/31 10:30:38;;;;;;;6.30;5.63;;;18.60;99.90;;;;;;4961349;28;20660;-90
2021/08/31 10:33:31;;;;;;;6.77;6.07;;;18.70;99.90;;;;;;4961629;28;20629;-90
2021/08/31 10:35:59;;;;;;;5.27;4.80;;;18.70;99.90;;;;;;4954090;28;20666;-90
2021/08/31 10:38:42;;;;;;;7.10;5.57;;;18.60;99.90;;;;;;4957695;28;20638;-90
2021/08/31 10:41:44;;;;;;;5.90;4.90;;;18.60;99.90;;;;;;4962040;28;20676;-90
2021/08/31 10:44:14;;;;;;;6.10;5.60;;;18.60;99.90;;;;;;4961918;28;20668;-90
2021/08/31 10:47:09;;;;;;;5.77;4.97;;;18.80;99.90;;;;;;4957474;28;20686;-91
2021/08/31 10:50:12;;;;;;;4.23;3.90;;;18.60;99.90;;;;;;4965984;28;20625;-90
2021/08/31 10:52:42;;;;;;;6.13;5.30;;;18.90;99.90;;;;;;4951810;28;20641;-90
2021/08/31 10:55:39;;;;;;;5.60;5.13;;;19.00;99.90;;;;;;4959920;28;20656;-89
2021/08/31 10:58:09;;;;;;;5.73;5.10;;;19.20;99.90;;;;;;4959927;28;21004;-90
2021/08/31 11:00:53;;;;;;;5.30;4.90;;;19.40;99.90;;;;;;4969952;28;20682;-90
2021/08/31 11:03:38;;;;;;;5.27;4.53;;;19.40;99.90;;;;;;4964715;28;20668;-90
2021/08/31 11:06:16;;;;;;;9.07;4.77;;;19.30;99.90;;;;;;4959439;28;20632;-90
2021/08/31 11:08:45;;;;;;;6.07;5.57;;;19.20;99.90;;;;;;4959667;28;21223;-90
2021/08/31 11:11:17;;;;;;;6.40;5.80;;;19.40;99.90;;;;;;4959706;28;20658;-90
2021/08/31 11:13:54;;;;;;;4.63;4.23;;;19.50;99.90;;;;;;4968380;28;20661;-89
2021/08/31 11:16:24;;;;;;;5.13;4.57;;;19.60;99.90;;;;;;4959924;28;20680;-90
2021/08/31 11:18:51;;;;;;;5.20;4.70;;;19.20;99.90;;;;;;4966136;28;20629;-90
2021/08/31 11:21:18;;;;;;;4.93;4.50;;;19.30;99.90;;;;;;4963014;28;20645;-90
2021/08/31 11:23:46;;;;;;;5.47;4.73;;;19.50;99.90;;;;;;4959269;28;20666;-90
2021/08/31 11:26:22;;;;;;;5.27;4.80;;;19.30;99.90;;;;;;4958188;28;20650;-90
2021/08/31 11:28:49;;;;;;;4.80;4.40;;;19.40;99.90;;;;;;4959423;28;20892;-90
2021/08/31 11:31:22;;;;;;;5.37;4.87;;;19.60;99.90;;;;;;4957133;28;20651;-90
2021/08/31 11:33:52;;;;;;;4.63;4.30;;;19.70;99.90;;;;;;4967331;28;20641;-90
2021/08/31 11:36:21;;;;;;;6.60;5.17;;;19.90;99.90;;;;;;4978874;28;20717;-89
2021/08/31 11:38:51;;;;;;;6.23;4.80;;;19.90;99.90;;;;;;4978099;28;20718;-89
2021/08/31 11:41:20;;;;;;;5.47;5.07;;;20.10;99.90;;;;;;4965767;28;20665;-91
2021/08/31 11:43:50;;;;;;;5.87;5.20;;;20.30;99.90;;;;;;4966077;28;21032;-90
2021/08/31 11:46:21;;;;;;;5.53;5.07;;;20.20;99.90;;;;;;4962890;28;20842;-91
2021/08/31 11:48:48;;;;;;;5.73;5.13;;;20.70;99.90;;;;;;4956926;28;20630;-91
2021/08/31 11:51:20;;;;;;;7.00;5.20;;;20.90;99.90;;;;;;4963418;28;20661;-91
2021/08/31 11:53:48;;;;;;;4.90;4.50;;;21.00;99.90;;;;;;4956634;28;20973;-91
2021/08/31 11:56:21;;;;;;;5.13;4.73;;;21.40;99.90;;;;;;4960879;28;20637;-92
2021/08/31 11:58:48;;;;;;;8.67;8.17;;;21.60;99.90;;;;;;4957239;28;20627;-91
2021/08/31 12:01:28;;;;;;;6.87;6.47;;;21.30;99.90;;;;;;4960309;28;20661;-89
2021/08/31 12:03:56;;;;;;;5.80;5.40;;;21.20;99.90;;;;;;4957769;28;20756;-91
2021/08/31 12:06:24;;;;;;;5.20;4.70;;;21.20;99.90;;;;;;4944211;28;20628;-89
2021/08/31 12:08:51;;;;;;;9.30;8.70;;;21.20;99.90;;;;;;4958756;28;20641;-90
2021/08/31 12:11:19;;;;;;;5.67;5.17;;;21.20;99.90;;;;;;4962175;28;20645;-89
2021/08/31 12:13:48;;;;;;;5.47;5.00;;;21.10;99.90;;;;;;4958134;28;21085;-90
2021/08/31 12:16:18;;;;;;;5.00;4.60;;;20.80;99.90;;;;;;4960985;28;21051;-91
2021/08/31 12:18:45;;;;;;;8.30;7.80;;;20.80;99.90;;;;;;4958726;28;20631;-91
2021/08/31 12:21:21;;;;;;;7.60;7.00;;;20.90;99.90;;;;;;4959690;28;20659;-91
2021/08/31 12:23:49;;;;;;;8.53;8.03;;;20.90;99.90;;;;;;4957040;28;20735;-91
2021/08/31 12:26:36;;;;;;;8.93;8.33;;;21.30;99.90;;;;;;4960745;28;21197;-90
2021/08/31 12:29:05;;;;;;;4.87;4.47;;;21.80;99.90;;;;;;4955830;28;20633;-91
2021/08/31 12:31:32;;;;;;;8.90;8.40;;;22.20;99.90;;;;;;4954189;28;20658;-91
2021/08/31 12:33:59;;;;;;;10.00;9.40;;;22.40;99.90;;;;;;4960067;28;20632;-91
2021/08/31 12:36:32;;;;;;;9.43;8.40;;;22.20;99.90;;;;;;4954763;28;20928;-91
2021/08/31 12:39:03;;;;;;;6.30;5.70;;;21.60;99.90;;;;;;4958690;28;20732;-91
2021/08/31 12:41:39;;;;;;;5.97;5.47;;;21.50;99.90;;;;;;4957356;28;20683;-89
2021/08/31 12:44:15;;;;;;;10.17;9.30;;;21.40;99.90;;;;;;4959124;28;20665;-90
2021/08/31 12:46:42;;;;;;;9.97;9.27;;;20.90;99.90;;;;;;4961374;28;20589;-90
2021/08/31 12:52:20;;;;;;;10.13;9.43;;;20.50;99.90;;;;;;5063736;23;20670;-89